Time;durP1;ratioP1;P1;durP2;ratioP2;P2;SDS_P1;SDS_P2;PMS_P1;PMS_P2;Temp;Humidity;BMP_temperature;BMP_pressure;BME280_temperature;BME280_humidity;BME280_pressure;Samples;Min_cycle;Max_cycle;Signal;HPM_P1;HPM_P2
2022/12/15 00:43:05;;;;;;;1.88;1.77;;;;;;;1.18;100.00;96830.09;10212817;28;20050;-58
2022/12/15 00:48:04;;;;;;;1.00;1.00;;;;;;;1.25;100.00;96796.16;10211427;28;20465;-58
2022/12/15 01:24:48;;;;;;;0.77;0.77;;;;;;;0.36;100.00;96722.78;10203787;28;20058;-59
2022/12/15 01:29:47;;;;;;;0.80;0.80;;;;;;;0.47;100.00;96744.31;10208954;28;20106;-59
2022/12/15 01:34:46;;;;;;;1.17;1.17;;;;;;;0.56;100.00;96755.53;10209621;28;20058;-59
2022/12/15 01:45:27;;;;;;;1.10;1.10;;;;;;;0.86;100.00;96722.13;10210423;28;20477;-59
2022/12/15 01:50:28;;;;;;;1.98;1.85;;;;;;;0.81;100.00;96708.41;10210101;28;20425;-59
2022/12/15 01:55:29;;;;;;;1.00;0.98;;;;;;;0.85;100.00;96680.41;10209853;28;20062;-59
2022/12/15 02:00:29;;;;;;;2.30;1.80;;;;;;;0.76;100.00;96717.69;10208009;28;20054;-60
2022/12/15 02:05:30;;;;;;;0.82;0.82;;;;;;;0.39;100.00;96742.41;10209086;28;20066;-60
2022/12/15 02:11:10;;;;;;;0.88;0.88;;;;;;;0.60;100.00;96724.16;10209087;28;20521;-59
2022/12/15 02:16:47;;;;;;;0.80;0.80;;;;;;;0.71;100.00;96732.91;10207134;28;20057;-59
2022/12/15 02:22:05;;;;;;;2.17;1.98;;;;;;;0.92;100.00;96721.38;10207615;28;20173;-59
2022/12/15 02:27:20;;;;;;;2.30;2.15;;;;;;;1.02;100.00;96725.88;10206044;28;20054;-59
2022/12/15 02:32:31;;;;;;;1.77;1.23;;;;;;;0.74;100.00;96737.22;10206799;28;20481;-59
2022/12/15 02:37:38;;;;;;;0.55;0.55;;;;;;;0.78;100.00;96732.19;10206846;28;20054;-59
2022/12/15 02:42:48;;;;;;;0.30;0.28;;;;;;;0.90;100.00;96762.25;10206857;28;20504;-59
2022/12/15 02:48:19;;;;;;;0.40;0.40;;;;;;;0.86;100.00;96776.63;10208642;28;20070;-59
2022/12/15 02:53:24;;;;;;;0.20;0.20;;;;;;;0.97;100.00;96776.84;10204442;28;20065;-59
2022/12/15 02:58:26;;;;;;;0.45;0.45;;;;;;;1.02;100.00;96802.50;10207313;28;20089;-59
2022/12/15 03:03:27;;;;;;;0.55;0.55;;;;;;;0.96;100.00;96821.09;10207970;28;20078;-59
2022/12/15 03:08:27;;;;;;;0.28;0.28;;;;;;;0.84;100.00;96831.06;10208111;28;20054;-59
2022/12/15 03:13:26;;;;;;;0.75;0.75;;;;;;;0.69;100.00;96860.53;10207571;28;20106;-59
2022/12/15 03:18:26;;;;;;;0.65;0.65;;;;;;;0.27;100.00;96855.28;10206147;28;20074;-59
2022/12/15 03:23:25;;;;;;;1.85;1.75;;;;;;;-0.19;100.00;96874.47;10206807;28;20051;-59
2022/12/15 03:28:24;;;;;;;1.02;0.93;;;;;;;-0.21;100.00;96840.44;10204579;28;20127;-59
2022/12/15 03:33:22;;;;;;;0.93;0.82;;;;;;;-0.46;100.00;96861.84;10214665;28;20103;-60
2022/12/15 03:38:21;;;;;;;0.77;0.77;;;;;;;-0.61;100.00;96877.56;10215408;28;20869;-60
2022/12/15 03:43:21;;;;;;;0.88;0.88;;;;;;;-0.95;100.00;96879.16;10212304;28;20229;-59
2022/12/15 03:48:19;;;;;;;;;;;;;;;-0.86;100.00;96893.81;10215237;28;20120;-60
2022/12/15 03:53:18;;;;;;;1.88;1.45;;;;;;;-0.92;100.00;96920.00;10214430;28;20081;-59
2022/12/15 03:58:17;;;;;;;1.38;1.33;;;;;;;-0.95;100.00;96925.00;10214798;28;20026;-59
2022/12/15 04:03:16;;;;;;;0.15;0.15;;;;;;;-1.07;100.00;96932.25;10214527;28;20580;-59
2022/12/15 04:08:15;;;;;;;1.02;1.02;;;;;;;-1.09;100.00;96961.91;10214864;28;20508;-59
2022/12/15 04:13:14;;;;;;;0.98;0.93;;;;;;;-1.07;100.00;96955.16;10214706;28;20404;-59
2022/12/15 04:18:13;;;;;;;1.25;1.15;;;;;;;-1.08;100.00;96963.63;10181769;28;20134;-59
2022/12/15 04:23:12;;;;;;;;;;;;;;;-1.02;100.00;96979.09;10210510;28;20049;-60
2022/12/15 05:31:57;;;;;;;1.63;1.52;;;;;;;-0.08;100.00;97076.25;10177619;28;20071;-59
2022/12/15 05:36:58;;;;;;;3.35;2.15;;;;;;;-0.03;100.00;97090.84;10211262;28;20070;-60
2022/12/15 05:41:57;;;;;;;1.80;1.67;;;;;;;0.06;100.00;97105.56;10205660;28;20966;-59
2022/12/15 05:46:56;;;;;;;0.65;0.65;;;;;;;0.10;100.00;97119.25;10207450;28;20050;-58
2022/12/15 05:51:56;;;;;;;0.80;0.80;;;;;;;0.07;100.00;97096.22;10215627;28;20069;-59
2022/12/15 05:56:55;;;;;;;2.88;1.63;;;;;;;0.17;100.00;97116.97;10205819;28;20074;-59
2022/12/15 06:01:53;;;;;;;2.55;1.90;;;;;;;0.15;100.00;97120.28;10201373;28;20051;-59
2022/12/15 06:06:52;;;;;;;1.85;1.75;;;;;;;0.14;100.00;97121.09;10187972;28;20119;-59
2022/12/15 06:11:51;;;;;;;3.35;2.35;;;;;;;0.22;100.00;97132.41;10203142;28;20130;-59
2022/12/15 06:16:50;;;;;;;0.43;0.43;;;;;;;0.32;100.00;97139.50;10205950;28;20037;-59
2022/12/15 06:21:49;;;;;;;2.03;1.00;;;;;;;0.34;100.00;97145.50;10205642;28;20070;-59
2022/12/15 06:26:48;;;;;;;2.00;1.90;;;;;;;0.41;100.00;97167.84;10198269;28;20062;-59
2022/12/15 06:31:47;;;;;;;3.45;2.72;;;;;;;0.56;100.00;97157.19;10207908;28;20142;-59
2022/12/15 06:36:46;;;;;;;3.45;3.15;;;;;;;0.65;100.00;97159.16;10204805;28;20129;-59
2022/12/15 06:41:45;;;;;;;2.63;2.50;;;;;;;0.64;100.00;97157.44;10209940;28;20101;-59
2022/12/15 06:46:45;;;;;;;2.17;2.08;;;;;;;0.77;100.00;97151.81;10199206;28;20027;-59
2022/12/15 06:51:44;;;;;;;1.25;1.13;;;;;;;0.94;100.00;97161.63;10203515;28;20485;-59
2022/12/15 06:56:43;;;;;;;1.90;1.80;;;;;;;1.07;100.00;97164.56;10206983;28;20478;-59
2022/12/15 07:01:42;;;;;;;0.98;0.98;;;;;;;1.15;100.00;97174.97;10207350;28;20819;-59
2022/12/15 07:06:41;;;;;;;5.15;1.35;;;;;;;1.26;100.00;97180.38;10215408;28;20541;-58
2022/12/15 07:11:40;;;;;;;2.33;2.15;;;;;;;1.22;100.00;97164.09;10208725;28;20075;-58
2022/12/15 07:16:39;;;;;;;6.35;5.20;;;;;;;1.19;100.00;97179.34;10206752;28;20050;-58
2022/12/15 07:21:39;;;;;;;3.75;3.45;;;;;;;1.37;100.00;97191.75;10217736;28;20077;-58
2022/12/15 07:26:39;;;;;;;3.53;3.28;;;;;;;1.64;100.00;97195.81;10210620;28;20058;-58
2022/12/15 07:31:39;;;;;;;6.38;2.70;;;;;;;1.64;100.00;97209.47;10215354;28;20532;-58
2022/12/15 07:36:37;;;;;;;;;;;;;;;1.52;100.00;97225.38;10211181;28;20073;-58
2022/12/15 07:41:37;;;;;;;2.22;2.10;;;;;;;1.45;100.00;97223.47;10215547;28;20025;-58
2022/12/15 07:46:36;;;;;;;2.60;2.42;;;;;;;1.38;100.00;97230.97;10205350;28;20062;-58
2022/12/15 07:51:35;;;;;;;3.00;2.80;;;;;;;1.44;100.00;97239.66;10209062;28;20039;-58
2022/12/15 07:56:34;;;;;;;10.23;3.78;;;;;;;1.47;100.00;97238.88;10214233;28;20474;-59
2022/12/15 08:01:36;;;;;;;8.52;6.47;;;;;;;1.62;100.00;97241.84;10213999;28;20752;-59
2022/12/15 08:06:35;;;;;;;2.95;2.65;;;;;;;1.59;100.00;97241.75;10214755;28;20143;-59
2022/12/15 08:11:34;;;;;;;2.60;2.42;;;;;;;1.39;100.00;97237.78;10240517;28;20433;-59
2022/12/15 08:16:35;;;;;;;6.63;5.97;;;;;;;1.28;100.00;97261.38;10202070;28;20121;-59
2022/12/15 08:21:34;;;;;;;2.70;2.58;;;;;;;1.15;100.00;97266.97;10210240;28;20125;-60
2022/12/15 08:26:34;;;;;;;3.00;2.80;;;;;;;1.39;100.00;97264.25;10205287;28;20066;-60
2022/12/15 08:31:33;;;;;;;3.10;2.85;;;;;;;1.43;100.00;97263.47;10211226;28;20508;-59
2022/12/15 08:36:32;;;;;;;8.00;3.17;;;;;;;1.60;100.00;97281.84;10207371;28;20061;-58
2022/12/15 08:41:32;;;;;;;2.55;2.35;;;;;;;1.72;100.00;97281.31;10210424;28;20022;-58
2022/12/15 08:46:33;;;;;;;2.53;2.33;;;;;;;1.89;100.00;97274.06;10209852;28;20066;-58
2022/12/15 08:51:32;;;;;;;2.92;2.72;;;;;;;1.85;100.00;97273.09;10202617;28;20059;-58
2022/12/15 08:56:31;;;;;;;;;;;;;;;2.09;100.00;97285.66;10209969;28;20054;-58
2022/12/15 09:01:31;;;;;;;5.82;3.10;;;;;;;1.93;100.00;97288.66;10209196;28;19969;-58
2022/12/15 09:06:32;;;;;;;3.08;2.78;;;;;;;1.59;100.00;97297.13;10209344;28;20082;-58
2022/12/15 09:11:32;;;;;;;3.30;2.05;;;;;;;1.51;100.00;97291.84;10204132;28;20465;-58
2022/12/15 09:16:31;;;;;;;2.97;2.70;;;;;;;1.63;100.00;97294.72;10208819;28;20054;-58
2022/12/15 09:21:30;;;;;;;1.83;1.73;;;;;;;1.77;100.00;97281.41;10194033;28;20401;-58
2022/12/15 09:26:32;;;;;;;1.67;1.58;;;;;;;2.01;100.00;97296.53;10210790;28;20474;-59
2022/12/15 09:31:35;;;;;;;1.50;1.40;;;;;;;2.28;100.00;97291.22;10208565;28;20053;-59
2022/12/15 09:36:34;;;;;;;5.85;5.00;;;;;;;2.61;100.00;97303.09;10209378;28;20069;-58
2022/12/15 09:41:35;;;;;;;6.75;5.72;;;;;;;2.92;100.00;97300.38;10210646;28;20065;-59
2022/12/15 09:47:05;;;;;;;2.75;2.15;;;;;;;3.35;100.00;97285.84;10188114;28;20061;-58
2022/12/15 09:52:10;;;;;;;3.58;3.35;;;;;;;3.59;100.00;97292.31;10205190;28;20070;-59
2022/12/15 09:57:12;;;;;;;2.03;1.55;;;;;;;3.64;100.00;97298.41;10209532;28;20130;-59
2022/12/15 10:02:36;;;;;;;4.28;3.22;;;;;;;3.54;100.00;97304.16;10207167;28;20101;-58
2022/12/15 10:07:42;;;;;;;3.42;2.25;;;;;;;3.52;100.00;97287.88;10208063;28;20061;-58
2022/12/15 10:12:43;;;;;;;2.70;2.40;;;;;;;3.44;100.00;97287.75;10191936;28;20070;-58
2022/12/15 10:18:10;;;;;;;6.03;3.78;;;;;;;3.48;100.00;97298.94;10200331;28;20166;-58
2022/12/15 10:23:12;;;;;;;8.43;4.65;;;;;;;3.44;100.00;97300.56;10197054;28;20173;-58
2022/12/15 10:28:52;;;;;;;3.88;3.45;;;;;;;3.49;100.00;97298.09;10200858;28;20564;-58
2022/12/15 10:34:00;;;;;;;2.38;2.25;;;;;;;3.49;100.00;97296.38;10189851;28;20085;-58
2022/12/15 10:38:59;;;;;;;2.25;2.03;;;;;;;3.55;100.00;97282.84;10205715;28;20734;-58
2022/12/15 10:43:58;;;;;;;4.53;3.50;;;;;;;3.69;100.00;97265.13;10203727;28;20834;-58
2022/12/15 10:49:05;;;;;;;2.83;2.13;;;;;;;3.93;100.00;97259.56;10200441;28;20073;-58
2022/12/15 10:54:15;;;;;;;4.45;2.70;;;;;;;4.10;100.00;97283.78;10198839;28;20126;-58
2022/12/15 10:59:40;;;;;;;4.15;2.08;;;;;;;4.08;100.00;97272.66;10205596;28;20069;-58
2022/12/15 11:04:39;;;;;;;1.73;1.63;;;;;;;4.02;100.00;97277.69;10203514;28;20114;-58
2022/12/15 11:09:38;;;;;;;10.80;2.08;;;;;;;3.86;100.00;97277.41;10197438;28;20077;-58
2022/12/15 11:14:48;;;;;;;;;;;;;;;3.89;100.00;97280.88;10205482;28;20441;-58
2022/12/15 11:20:03;;;;;;;2.45;2.35;;;;;;;3.77;100.00;97282.38;10192454;28;19959;-58
2022/12/15 11:25:20;;;;;;;4.25;3.10;;;;;;;4.00;100.00;97275.06;10189154;28;20106;-58
2022/12/15 11:30:21;;;;;;;5.05;3.42;;;;;;;4.12;100.00;97264.16;10200525;28;20063;-58
2022/12/15 11:35:36;;;;;;;5.95;4.55;;;;;;;4.38;100.00;97273.97;10193825;28;20129;-58
2022/12/15 11:40:40;;;;;;;2.25;2.08;;;;;;;4.32;100.00;97274.75;10203830;28;20059;-58
2022/12/15 11:45:58;;;;;;;2.53;2.33;;;;;;;4.48;100.00;97258.75;10203376;28;20073;-58
2022/12/15 11:51:10;;;;;;;4.13;2.92;;;;;;;4.53;100.00;97271.66;10211017;28;20276;-58
2022/12/15 11:56:30;;;;;;;2.75;2.50;;;;;;;4.60;100.00;97262.34;10195294;28;20114;-58
2022/12/15 12:01:32;;;;;;;4.13;3.58;;;;;;;4.67;100.00;97272.72;10207994;28;20058;-58
2022/12/15 12:06:44;;;;;;;6.93;4.95;;;;;;;4.34;100.00;97260.25;10205009;28;20047;-56
2022/12/15 12:12:11;;;;;;;8.00;5.70;;;;;;;4.18;100.00;97269.41;10212909;28;20058;-58
2022/12/15 12:17:26;;;;;;;10.13;5.95;;;;;;;4.16;100.00;97275.34;10213366;28;20058;-56
2022/12/15 12:22:27;;;;;;;5.85;5.10;;;;;;;4.25;100.00;97284.06;10180707;28;20777;-58
2022/12/15 12:27:38;;;;;;;10.20;5.63;;;;;;;4.34;100.00;97287.59;10208282;28;20053;-56
2022/12/15 12:32:46;;;;;;;4.68;4.15;;;;;;;4.36;100.00;97280.78;10192607;28;20058;-57
2022/12/15 12:37:57;;;;;;;7.90;4.40;;;;;;;4.06;99.58;97298.31;10214866;28;20066;-56
2022/12/15 12:42:57;;;;;;;4.07;3.67;;;;;;;3.91;100.00;97272.34;10206303;28;20078;-57
2022/12/15 12:48:02;;;;;;;5.43;4.50;;;;;;;3.90;100.00;97285.19;10213331;28;20497;-58
2022/12/15 12:53:02;;;;;;;10.05;4.53;;;;;;;3.85;100.00;97298.78;10213191;28;20469;-57
2022/12/15 12:58:02;;;;;;;3.72;3.13;;;;;;;3.89;100.00;97321.94;10200926;28;20078;-57
2022/12/15 13:03:20;;;;;;;3.63;3.33;;;;;;;3.89;100.00;97311.66;10226988;28;20081;-57
2022/12/15 13:08:43;;;;;;;4.20;3.90;;;;;;;3.94;100.00;97323.78;10195583;28;20074;-57
2022/12/15 13:13:45;;;;;;;4.55;4.20;;;;;;;4.00;100.00;97310.16;10212418;28;20069;-57
2022/12/15 13:19:06;;;;;;;3.53;3.22;;;;;;;4.04;100.00;97310.25;10185765;28;20141;-57
2022/12/15 13:24:37;;;;;;;3.72;3.47;;;;;;;4.15;100.00;97295.03;10208835;28;20078;-57
2022/12/15 13:29:56;;;;;;;5.55;4.88;;;;;;;4.24;100.00;97290.06;10196619;28;20077;-57
2022/12/15 13:34:56;;;;;;;6.95;6.30;;;;;;;4.12;100.00;97305.22;10182245;28;20138;-57
2022/12/15 13:39:56;;;;;;;5.82;5.22;;;;;;;4.09;100.00;97297.50;10209634;28;20528;-57
2022/12/15 13:45:05;;;;;;;5.82;5.30;;;;;;;4.08;100.00;97317.16;10209853;28;20078;-57
2022/12/15 13:50:13;;;;;;;11.13;5.68;;;;;;;4.13;100.00;97326.63;10208520;28;20066;-57
2022/12/15 13:55:33;;;;;;;7.53;4.85;;;;;;;4.16;100.00;97322.44;10195720;28;20077;-57
2022/12/15 14:00:32;;;;;;;8.75;6.63;;;;;;;4.17;100.00;97329.28;10205059;28;20102;-56
2022/12/15 14:05:31;;;;;;;6.40;4.55;;;;;;;4.16;100.00;97321.56;10207908;28;20050;-56
2022/12/15 14:11:00;;;;;;;4.43;4.03;;;;;;;4.09;100.00;97323.16;10210156;28;20815;-56
2022/12/15 14:16:03;;;;;;;13.70;6.03;;;;;;;4.04;100.00;97337.63;10190452;28;20508;-56
2022/12/15 14:21:19;;;;;;;6.15;5.20;;;;;;;3.94;100.00;97333.16;10209141;28;20134;-57
2022/12/15 14:26:26;;;;;;;10.35;8.40;;;;;;;3.90;100.00;97344.22;10203251;28;20130;-57
2022/12/15 14:31:26;;;;;;;7.32;6.25;;;;;;;3.81;100.00;97335.50;10200571;28;20084;-57
2022/12/15 14:36:25;;;;;;;12.35;5.97;;;;;;;3.70;100.00;97348.97;10196110;28;20113;-57
2022/12/15 14:41:32;;;;;;;4.35;3.90;;;;;;;3.66;100.00;97350.63;10204712;28;20058;-57
2022/12/15 14:46:31;;;;;;;4.15;3.80;;;;;;;3.66;100.00;97366.00;10208475;28;20062;-57
2022/12/15 14:51:41;;;;;;;7.80;5.93;;;;;;;3.59;100.00;97379.56;10220111;28;20081;-57
2022/12/15 14:56:42;;;;;;;8.10;6.18;;;;;;;3.56;100.00;97385.47;10206078;28;20067;-57
2022/12/15 15:02:00;;;;;;;25.10;6.95;;;;;;;3.51;100.00;97393.91;10200996;28;20141;-57
2022/12/15 15:07:02;;;;;;;7.85;5.93;;;;;;;3.46;100.00;97395.50;10200780;28;20468;-58
2022/12/15 15:12:22;;;;;;;5.93;5.43;;;;;;;3.39;100.00;97404.78;10204383;28;20596;-58
2022/12/15 15:17:25;;;;;;;11.40;8.02;;;;;;;3.33;100.00;97385.00;10184240;28;20047;-58
2022/12/15 15:22:42;;;;;;;11.45;7.28;;;;;;;3.29;100.00;97390.88;10201414;28;20113;-56
2022/12/15 15:27:41;;;;;;;15.75;12.20;;;;;;;3.21;100.00;97394.97;10209020;28;20505;-56
2022/12/15 15:33:06;;;;;;;16.35;11.88;;;;;;;3.17;100.00;97385.50;10203930;28;20121;-56
2022/12/15 15:38:27;;;;;;;17.70;12.82;;;;;;;3.11;100.00;97404.16;10200455;28;20126;-56
2022/12/15 15:43:31;;;;;;;14.73;12.18;;;;;;;3.05;100.00;97401.47;10218173;28;20118;-56
2022/12/15 15:48:36;;;;;;;12.25;10.18;;;;;;;2.96;100.00;97399.56;10208842;28;20114;-57
2022/12/15 15:53:37;;;;;;;14.70;8.52;;;;;;;2.72;100.00;97419.47;10209147;28;20117;-56
2022/12/15 15:58:36;;;;;;;11.75;9.18;;;;;;;2.69;100.00;97419.41;10207811;28;20125;-56
2022/12/15 16:03:35;;;;;;;16.25;11.82;;;;;;;2.55;100.00;97404.53;10207745;28;20453;-57
2022/12/15 16:08:36;;;;;;;18.60;9.80;;;;;;;2.62;100.00;97427.75;10208025;28;20125;-56
2022/12/15 16:13:34;;;;;;;24.10;18.40;;;;;;;2.52;100.00;97430.09;10209990;28;20134;-57
2022/12/15 16:18:34;;;;;;;18.30;12.05;;;;;;;2.45;100.00;97417.09;10208869;28;20068;-57
2022/12/15 16:23:33;;;;;;;13.45;11.82;;;;;;;2.48;100.00;97415.47;10219203;28;20145;-56
2022/12/15 16:28:32;;;;;;;12.98;11.52;;;;;;;2.38;100.00;97413.50;10206938;28;20489;-56
2022/12/15 16:33:31;;;;;;;16.95;8.38;;;;;;;2.34;100.00;97415.13;10207685;28;20198;-56
2022/12/15 16:38:30;;;;;;;17.35;12.43;;;;;;;2.42;100.00;97429.81;10207357;28;20034;-56
2022/12/15 16:43:29;;;;;;;12.43;10.93;;;;;;;2.37;100.00;97447.59;10205447;28;20476;-56
2022/12/15 16:48:28;;;;;;;36.17;15.30;;;;;;;2.35;100.00;97447.59;10185255;28;20521;-56
2022/12/15 16:53:30;;;;;;;20.15;15.55;;;;;;;2.38;100.00;97463.03;10207703;28;20080;-56
2022/12/15 16:58:30;;;;;;;26.48;16.30;;;;;;;2.39;100.00;97461.31;10193413;28;20042;-56
2022/12/15 17:03:29;;;;;;;20.15;14.57;;;;;;;2.41;100.00;97466.50;10175521;28;20141;-56
2022/12/15 17:08:44;;;;;;;23.02;16.83;;;;;;;2.29;100.00;97477.28;10204365;28;20569;-56
2022/12/15 17:13:46;;;;;;;18.45;16.67;;;;;;;2.22;100.00;97477.94;10207874;28;20109;-56
2022/12/15 17:18:46;;;;;;;18.58;14.20;;;;;;;2.11;100.00;97499.00;10205776;28;20141;-56
2022/12/15 17:23:46;;;;;;;;;;;;;;;2.01;100.00;97496.13;10206616;28;20194;-56
2022/12/15 17:28:45;;;;;;;;;;;;;;;2.04;100.00;97486.81;10207100;28;20008;-56
2022/12/15 17:33:44;;;;;;;24.77;12.45;;;;;;;2.07;100.00;97502.28;10182608;28;19948;-56
2022/12/15 17:38:43;;;;;;;17.48;15.73;;;;;;;2.11;100.00;97511.81;10194036;28;20137;-56
2022/12/15 17:43:42;;;;;;;25.67;17.33;;;;;;;2.02;100.00;97506.41;10198971;28;20047;-56
2022/12/15 17:48:40;;;;;;;19.38;12.18;;;;;;;2.06;100.00;97490.31;10204376;28;20035;-56
2022/12/15 17:53:41;;;;;;;12.43;11.20;;;;;;;2.12;100.00;97498.16;10197626;28;20050;-56
2022/12/15 17:58:40;;;;;;;20.02;10.30;;;;;;;2.26;100.00;97495.13;10184182;28;20134;-56
2022/12/15 18:03:39;;;;;;;;;;;;;;;2.33;100.00;97499.59;10195388;28;20126;-56
2022/12/15 18:08:38;;;;;;;11.18;9.82;;;;;;;2.35;100.00;97492.81;10185006;28;19918;-56
2022/12/15 18:13:37;;;;;;;28.08;18.17;;;;;;;2.34;100.00;97498.75;10204502;28;20122;-56
2022/12/15 18:18:36;;;;;;;15.90;13.88;;;;;;;2.31;100.00;97501.25;10204109;28;20034;-56
2022/12/15 18:23:36;;;;;;;19.23;15.35;;;;;;;2.29;100.00;97498.63;10203938;28;20134;-56
2022/12/15 18:28:35;;;;;;;16.55;12.48;;;;;;;2.28;100.00;97506.28;10201060;28;20113;-56
2022/12/15 18:33:33;;;;;;;11.45;9.95;;;;;;;2.27;100.00;97507.94;10178126;28;20161;-56
2022/12/15 18:38:32;;;;;;;30.10;16.45;;;;;;;2.25;100.00;97495.94;10186355;28;20864;-56
2022/12/15 18:43:33;;;;;;;23.73;17.15;;;;;;;2.29;100.00;97497.75;10200430;28;20501;-55
2022/12/15 18:48:33;;;;;;;25.30;17.30;;;;;;;2.30;100.00;97504.59;10203379;28;20113;-56
2022/12/15 18:53:35;;;;;;;19.70;16.67;;;;;;;2.27;100.00;97494.28;10199139;28;20117;-57
2022/12/15 18:58:40;;;;;;;31.05;19.25;;;;;;;2.22;100.00;97503.53;10197089;28;20831;-57
2022/12/15 19:03:39;;;;;;;21.73;16.70;;;;;;;2.24;100.00;97512.13;10204788;28;20134;-57
2022/12/15 19:08:39;;;;;;;15.98;14.23;;;;;;;2.24;100.00;97504.47;10193700;28;20121;-57
2022/12/15 19:13:39;;;;;;;14.95;13.55;;;;;;;2.15;100.00;97495.69;10203278;28;20117;-57
2022/12/15 19:23:56;;;;;;;31.15;18.92;;;;;;;2.16;100.00;97486.31;10201295;28;20118;-56
2022/12/15 19:28:54;;;;;;;14.52;11.93;;;;;;;2.16;100.00;97479.50;10202574;28;20714;-57
2022/12/15 19:33:53;;;;;;;23.88;15.43;;;;;;;2.20;100.00;97482.16;10197330;28;20623;-57
2022/12/15 19:38:54;;;;;;;14.75;11.80;;;;;;;2.21;100.00;97494.09;10197507;28;20027;-56
2022/12/15 19:43:53;;;;;;;19.75;16.38;;;;;;;2.11;100.00;97483.66;10202951;28;20117;-56
2022/12/15 19:48:52;;;;;;;20.67;17.85;;;;;;;2.12;100.00;97490.50;10203208;28;20109;-56
2022/12/15 19:53:51;;;;;;;15.02;11.85;;;;;;;2.11;100.00;97501.56;10185310;28;20118;-56
2022/12/15 19:58:51;;;;;;;14.85;13.07;;;;;;;1.98;100.00;97507.16;10198352;28;20126;-56
2022/12/15 20:03:51;;;;;;;12.60;10.63;;;;;;;1.86;100.00;97510.22;10187664;28;20122;-56
2022/12/15 20:08:54;;;;;;;10.07;8.65;;;;;;;1.78;100.00;97508.25;10190904;28;20469;-56
2022/12/15 20:13:54;;;;;;;9.02;8.18;;;;;;;1.80;100.00;97514.28;10207366;28;20121;-56
2022/12/15 20:18:54;;;;;;;7.82;7.03;;;;;;;1.77;100.00;97516.78;10206766;28;20162;-56
2022/12/15 20:23:57;;;;;;;15.63;11.88;;;;;;;1.79;100.00;97515.13;10208055;28;20770;-56
2022/12/15 20:28:56;;;;;;;39.72;13.25;;;;;;;1.75;100.00;97514.16;10190588;28;20122;-56
2022/12/15 20:33:55;;;;;;;9.05;7.80;;;;;;;1.68;100.00;97513.09;10199887;28;20503;-56
2022/12/15 20:38:55;;;;;;;13.05;9.65;;;;;;;1.70;100.00;97520.81;10201923;28;20149;-56
2022/12/15 20:43:55;;;;;;;28.25;17.17;;;;;;;1.63;100.00;97504.44;10189382;28;20142;-56
2022/12/15 20:48:55;;;;;;;19.00;12.80;;;;;;;1.65;100.00;97507.91;10199788;28;20114;-56
2022/12/15 20:53:57;;;;;;;26.63;12.75;;;;;;;1.66;100.00;97511.31;10194949;28;20518;-56
2022/12/15 20:58:57;;;;;;;21.50;14.75;;;;;;;1.72;100.00;97504.69;10210322;28;20130;-56
2022/12/15 21:03:58;;;;;;;20.23;11.25;;;;;;;1.80;100.00;97499.81;10203877;28;20491;-56
2022/12/15 21:08:57;;;;;;;22.25;14.50;;;;;;;1.82;100.00;97504.97;10198731;28;20029;-56
2022/12/15 21:14:03;;;;;;;16.77;15.15;;;;;;;1.78;100.00;97482.66;10216204;28;20564;-56
2022/12/15 21:19:05;;;;;;;29.55;12.88;;;;;;;1.86;100.00;97496.56;10205577;28;20126;-55
2022/12/15 21:24:21;;;;;;;21.20;14.32;;;;;;;1.86;100.00;97500.00;10202195;28;20125;-56
2022/12/15 21:29:23;;;;;;;18.83;15.32;;;;;;;1.89;100.00;97512.00;10184735;28;20851;-55
2022/12/15 21:34:22;;;;;;;28.92;17.40;;;;;;;1.87;100.00;97488.06;10195101;28;20037;-56
2022/12/15 21:39:32;;;;;;;9.23;8.43;;;;;;;1.85;100.00;97487.16;10203664;28;20038;-56
2022/12/15 21:44:31;;;;;;;27.10;15.93;;;;;;;1.87;100.00;97468.44;10197444;28;20194;-56
2022/12/15 21:49:30;;;;;;;17.42;14.20;;;;;;;1.82;100.00;97466.59;10200721;28;20027;-56
2022/12/15 21:54:31;;;;;;;49.97;21.25;;;;;;;1.83;100.00;97445.28;10224312;28;20039;-56
2022/12/15 21:59:31;;;;;;;16.05;14.52;;;;;;;1.79;100.00;97440.94;10235051;28;20525;-55
2022/12/15 22:04:32;;;;;;;17.92;16.23;;;;;;;1.70;100.00;97450.06;10201341;28;20130;-56
2022/12/15 22:09:31;;;;;;;29.58;22.10;;;;;;;1.66;100.00;97450.78;10209472;28;20121;-56
2022/12/15 22:14:33;;;;;;;24.63;16.30;;;;;;;1.53;100.00;97433.38;10191527;28;20022;-56
2022/12/15 22:19:32;;;;;;;36.05;12.93;;;;;;;1.47;100.00;97435.75;10188822;28;20138;-56
2022/12/15 22:24:31;;;;;;;18.20;10.90;;;;;;;1.49;100.00;97452.88;10200977;28;20033;-56
2022/12/15 22:29:30;;;;;;;12.18;10.27;;;;;;;1.49;100.00;97444.34;10184678;28;20035;-56
2022/12/15 22:34:29;;;;;;;11.90;8.48;;;;;;;1.50;100.00;97429.00;10200721;28;20069;-56
2022/12/15 22:39:28;;;;;;;12.02;9.38;;;;;;;1.45;100.00;97415.22;10202516;28;20143;-56
2022/12/15 22:44:34;;;;;;;10.07;8.73;;;;;;;1.43;100.00;97418.56;10202831;28;20038;-57
2022/12/15 22:49:36;;;;;;;16.52;11.05;;;;;;;1.42;100.00;97411.75;10186180;28;20520;-57
2022/12/15 22:54:35;;;;;;;29.13;14.25;;;;;;;1.44;100.00;97400.72;10200368;28;20539;-56
2022/12/15 22:59:42;;;;;;;14.32;12.65;;;;;;;1.50;100.00;97392.34;10201929;28;20485;-56
2022/12/15 23:04:41;;;;;;;22.73;16.08;;;;;;;1.41;100.00;97379.31;10188378;28;20701;-57
2022/12/15 23:09:40;;;;;;;22.63;14.35;;;;;;;1.38;100.00;97379.22;10202188;28;20079;-57
2022/12/15 23:20:04;;;;;;;18.50;11.45;;;;;;;1.35;100.00;97359.56;10198012;28;20122;-57
2022/12/15 23:25:04;;;;;;;17.27;13.30;;;;;;;1.32;100.00;97359.47;10200938;28;20066;-57
2022/12/15 23:30:03;;;;;;;;;;;;;;;1.29;100.00;97378.16;10203108;28;20066;-57
2022/12/15 23:35:02;;;;;;;17.95;9.55;;;;;;;1.20;100.00;97351.44;10169269;28;19953;-57
2022/12/15 23:40:01;;;;;;;11.48;10.57;;;;;;;1.20;100.00;97339.56;10201000;28;20030;-57
2022/12/15 23:45:00;;;;;;;28.83;12.30;;;;;;;1.17;100.00;97359.88;10177471;28;20089;-57
2022/12/15 23:49:59;;;;;;;9.35;8.65;;;;;;;1.03;100.00;97376.50;10214094;28;20469;-55
2022/12/15 23:54:58;;;;;;;11.13;9.85;;;;;;;0.99;100.00;97385.78;10209270;28;20073;-55
2022/12/15 23:59:57;;;;;;;7.20;6.57;;;;;;;0.83;100.00;97394.66;10210127;28;20030;-55
